Time;durP1;ratioP1;P1;durP2;ratioP2;P2;SDS_P1;SDS_P2;PMS_P1;PMS_P2;Temp;Humidity;BMP_temperature;BMP_pressure;BME280_temperature;BME280_humidity;BME280_pressure;Samples;Min_cycle;Max_cycle;Signal;HPM_P1;HPM_P2
2021/12/06 00:07:46;;;;;;;5.80;4.63;;;;;;;14.54;53.90;100890.91;21052667;28;20309;-69
2021/12/06 00:17:48;;;;;;;5.88;5.20;;;;;;;14.50;53.80;100903.66;21085903;28;20044;-69
2021/12/06 00:27:50;;;;;;;6.13;5.43;;;;;;;14.42;53.79;100892.69;21085919;28;20081;-69
2021/12/06 00:37:58;;;;;;;5.65;5.05;;;;;;;13.87;54.05;100815.44;21066024;28;20043;-69
2021/12/06 00:48:00;;;;;;;6.40;5.32;;;;;;;14.55;53.81;100935.50;21084852;28;20044;-69
2021/12/06 00:58:02;;;;;;;7.20;6.13;;;;;;;14.54;53.66;100956.06;21082339;28;20056;-69
2021/12/06 01:08:04;;;;;;;6.75;5.55;;;;;;;14.06;53.38;100863.16;21047274;28;20440;-69
2021/12/06 01:18:08;;;;;;;6.25;5.63;;;;;;;14.21;53.15;100906.69;21062730;28;20048;-70
2021/12/06 01:48:36;;;;;;;8.05;6.45;;;;;;;14.54;52.99;100961.41;21063432;28;20112;-69
2021/12/06 01:58:38;;;;;;;6.40;5.70;;;;;;;14.01;53.03;100892.91;21077553;28;20080;-69
2021/12/06 02:08:40;;;;;;;8.45;6.53;;;;;;;14.57;53.28;101009.41;21078110;28;20059;-69
2021/12/06 02:18:48;;;;;;;7.95;6.45;;;;;;;14.55;53.46;101002.47;21041660;28;20044;-69
2021/12/06 02:28:52;;;;;;;7.15;5.97;;;;;;;14.59;53.09;101020.03;21057131;28;20058;-69
2021/12/06 02:38:56;;;;;;;7.78;6.60;;;;;;;13.91;53.14;100915.97;21040526;28;20048;-69
2021/12/06 02:48:58;;;;;;;7.40;5.97;;;;;;;13.94;53.06;100906.88;21055659;28;20048;-69
2021/12/06 02:59:07;;;;;;;6.97;5.72;;;;;;;13.89;53.13;100913.38;21073167;28;20060;-69
2021/12/06 03:09:16;;;;;;;8.93;6.80;;;;;;;14.01;52.88;100932.22;21054949;28;20040;-69
2021/12/06 03:19:18;;;;;;;8.63;6.53;;;;;;;14.44;52.82;101017.50;21054556;28;20514;-69
2021/12/06 03:29:20;;;;;;;7.63;6.40;;;;;;;14.57;53.06;101048.75;21054823;28;20044;-69
2021/12/06 03:39:27;;;;;;;7.80;6.40;;;;;;;14.58;52.86;101047.78;21054070;28;20134;-69
2021/12/06 03:49:30;;;;;;;8.27;7.30;;;;;;;13.90;52.77;100938.34;21064569;28;20051;-69
2021/12/06 03:59:33;;;;;;;9.02;6.93;;;;;;;13.97;53.17;100962.84;21053363;28;20059;-69
2021/12/06 04:09:35;;;;;;;9.57;7.32;;;;;;;13.89;53.20;100958.03;21068608;28;20052;-69
2021/12/06 04:19:41;;;;;;;8.07;6.90;;;;;;;13.96;53.01;101010.16;21051323;28;20056;-69
2021/12/06 04:29:47;;;;;;;9.68;7.53;;;;;;;14.29;52.93;101035.53;21066485;28;20072;-69
2021/12/06 04:39:51;;;;;;;10.00;7.80;;;;;;;14.52;52.49;101067.81;21066047;28;20052;-69
2021/12/06 04:49:53;;;;;;;9.00;7.38;;;;;;;13.36;52.50;100897.47;21064955;28;20405;-69
2021/12/06 05:00:06;;;;;;;11.57;8.88;;;;;;;14.48;52.71;101077.06;21081365;28;20114;-69
2021/12/06 05:10:10;;;;;;;9.32;7.25;;;;;;;14.36;52.87;101090.34;21063509;28;20474;-69
2021/12/06 05:20:14;;;;;;;11.73;8.68;;;;;;;14.53;52.64;101096.34;21063447;28;20135;-71
2021/12/06 05:30:21;;;;;;;12.10;8.23;;;;;;;13.92;52.37;100992.63;21062172;28;20119;-70
2021/12/06 05:40:27;;;;;;;11.13;8.37;;;;;;;14.62;52.31;101084.13;21045104;28;20044;-70
2021/12/06 05:50:29;;;;;;;10.63;8.20;;;;;;;15.02;52.12;101096.47;21078349;28;20043;-71
2021/12/06 06:00:32;;;;;;;10.90;8.68;;;;;;;14.72;52.32;100978.00;21077029;28;20114;-71
2021/12/06 06:10:35;;;;;;;12.55;8.30;;;;;;;15.14;51.72;101023.19;21058800;28;20039;-70
2021/12/06 06:20:59;;;;;;;10.57;8.00;;;;;;;15.84;52.08;101087.69;21076394;28;20054;-70
2021/12/06 06:31:00;;;;;;;12.95;8.40;;;;;;;15.86;51.70;101084.88;21075549;28;20059;-68
2021/12/06 06:41:03;;;;;;;11.88;7.75;;;;;;;15.99;51.84;101095.56;21074319;28;20109;-69
2021/12/06 06:51:05;;;;;;;11.40;7.25;;;;;;;15.84;52.69;101060.84;21073789;28;20420;-68
2021/12/06 07:01:07;;;;;;;11.75;8.18;;;;;;;15.68;52.71;101025.41;21073193;28;20109;-70
2021/12/06 07:11:09;;;;;;;10.25;7.22;;;;;;;16.28;52.95;101109.38;21072681;28;20473;-70
2021/12/06 07:21:12;;;;;;;12.00;6.80;;;;;;;15.16;52.89;100915.78;21071984;28;20043;-71
2021/12/06 07:31:14;;;;;;;8.70;7.38;;;;;;;16.30;52.93;101118.19;21071766;28;20105;-70
2021/12/06 07:41:18;;;;;;;9.32;7.10;;;;;;;15.71;52.81;101017.97;21071480;28;20040;-71
2021/12/06 07:51:22;;;;;;;8.50;6.10;;;;;;;15.68;52.84;101023.59;21070945;28;20481;-70
2021/12/06 08:01:24;;;;;;;10.10;7.40;;;;;;;15.70;52.45;101031.53;21053353;28;20464;-70
2021/12/06 08:11:26;;;;;;;10.48;7.03;;;;;;;15.74;52.61;101033.00;21070499;28;20071;-70
2021/12/06 08:21:29;;;;;;;9.65;7.32;;;;;;;16.41;52.43;101135.31;21069973;28;20139;-70
2021/12/06 08:31:31;;;;;;;9.13;6.18;;;;;;;16.26;52.26;101078.25;21054443;28;20052;-70
2021/12/06 08:41:33;;;;;;;9.00;6.70;;;;;;;15.81;51.67;101008.22;21084028;28;20421;-70
2021/12/06 08:51:42;;;;;;;10.25;6.47;;;;;;;16.33;51.71;101091.06;21083030;28;20059;-73
2021/12/06 09:01:44;;;;;;;12.88;6.97;;;;;;;16.48;51.22;101106.97;21082092;28;20047;-72
2021/12/06 09:12:06;;;;;;;12.82;6.95;;;;;;;16.17;50.01;101055.66;21081567;28;20101;-73
2021/12/06 09:22:07;;;;;;;11.90;7.15;;;;;;;16.52;49.26;101120.03;21080874;28;20068;-71
2021/12/06 09:32:11;;;;;;;12.30;7.25;;;;;;;16.48;49.22;101117.72;21079814;28;20120;-70
2021/12/06 09:42:14;;;;;;;14.73;8.65;;;;;;;15.89;49.63;101018.41;21060816;28;20050;-68
2021/12/06 09:52:16;;;;;;;12.25;8.45;;;;;;;15.97;49.73;101033.94;21078315;28;20046;-69
2021/12/06 10:02:19;;;;;;;14.38;8.43;;;;;;;15.96;50.01;101032.22;21077229;28;20114;-69
2021/12/06 10:12:23;;;;;;;11.50;8.30;;;;;;;16.57;50.19;101127.75;21076796;28;20047;-70
2021/12/06 10:22:26;;;;;;;14.02;8.48;;;;;;;16.26;50.67;101064.84;21041803;28;20750;-70
2021/12/06 10:32:33;;;;;;;13.63;7.97;;;;;;;16.57;51.25;101108.06;21075101;28;20050;-69
2021/12/06 10:42:39;;;;;;;13.32;7.10;;;;;;;16.62;51.19;101098.66;21074719;28;20138;-68
2021/12/06 10:52:53;;;;;;;9.45;6.97;;;;;;;16.52;51.30;101087.78;21073099;28;20135;-70
2021/12/06 11:02:54;;;;;;;9.60;6.72;;;;;;;16.24;51.42;100977.16;21055070;28;20452;-69
2021/12/06 11:13:20;;;;;;;12.18;6.93;;;;;;;16.01;51.87;100921.75;21072593;28;20051;-70
2021/12/06 11:23:22;;;;;;;13.93;7.32;;;;;;;16.50;52.24;100997.53;21072221;28;20055;-71
2021/12/06 11:33:30;;;;;;;20.70;10.23;;;;;;;16.67;50.87;101031.09;21071963;28;20393;-70
2021/12/06 11:43:37;;;;;;;16.77;8.85;;;;;;;16.08;50.78;100917.59;21054082;28;20056;-70
2021/12/06 11:53:44;;;;;;;14.68;8.32;;;;;;;16.68;50.63;101011.28;21053285;28;20048;-71
2021/12/06 12:03:51;;;;;;;12.45;8.00;;;;;;;16.60;51.10;100976.13;21052773;28;20051;-71
2021/12/06 12:13:56;;;;;;;11.68;7.10;;;;;;;16.61;50.92;100950.97;21086130;28;20054;-72
2021/12/06 12:23:59;;;;;;;12.23;6.60;;;;;;;16.74;51.18;100956.16;21085515;28;20386;-74
2021/12/06 12:34:01;;;;;;;10.25;6.18;;;;;;;16.58;51.21;100910.91;21084767;28;20058;-73
2021/12/06 12:44:07;;;;;;;11.30;6.53;;;;;;;16.77;51.36;100929.00;21066084;28;20365;-71
2021/12/06 12:54:15;;;;;;;10.85;6.15;;;;;;;16.20;51.12;100808.31;21065524;28;20048;-71
2021/12/06 13:04:17;;;;;;;23.15;8.07;;;;;;;16.74;51.40;100875.50;21082361;28;20048;-72
2021/12/06 13:14:53;;;;;;;20.88;8.30;;;;;;;16.13;51.48;100775.75;21064232;28;20043;-73
2021/12/06 13:24:57;;;;;;;26.40;10.10;;;;;;;16.66;51.79;100852.81;21063277;28;20051;-72
2021/12/06 13:35:29;;;;;;;24.90;11.90;;;;;;;16.67;52.06;100827.63;21079935;28;20401;-71
2021/12/06 13:45:38;;;;;;;25.55;12.32;;;;;;;16.02;52.20;100714.00;21079110;28;20451;-72
2021/12/06 13:55:40;;;;;;;26.38;14.68;;;;;;;16.51;52.24;100779.69;21078092;28;20047;-72
2021/12/06 14:05:44;;;;;;;29.25;15.18;;;;;;;16.02;52.37;100661.16;21077575;28;20044;-71
2021/12/06 14:15:50;;;;;;;24.40;15.43;;;;;;;16.02;52.78;100639.69;21076584;28;20443;-74
2021/12/06 14:25:55;;;;;;;24.67;16.50;;;;;;;16.45;53.00;100694.25;21075995;28;20046;-72
2021/12/06 14:35:58;;;;;;;28.92;16.02;;;;;;;16.51;53.46;100682.13;21075106;28;20101;-71
2021/12/06 14:46:01;;;;;;;25.40;16.75;;;;;;;16.04;53.50;100575.97;21074569;28;20055;-71
2021/12/06 15:06:36;;;;;;;29.30;18.20;;;;;;;16.67;53.68;100679.78;21072734;28;20051;-72
2021/12/06 15:16:39;;;;;;;25.30;17.90;;;;;;;16.70;53.36;100673.31;21038438;28;20044;-72
2021/12/06 15:26:46;;;;;;;28.48;17.95;;;;;;;16.63;53.01;100632.66;21072356;28;20659;-72
2021/12/06 15:36:49;;;;;;;27.88;17.83;;;;;;;16.68;53.23;100629.59;21054056;28;20051;-73
2021/12/06 15:46:58;;;;;;;27.70;18.42;;;;;;;16.67;53.20;100631.41;21067290;28;20489;-72
2021/12/06 15:57:05;;;;;;;24.15;18.13;;;;;;;16.11;53.08;100510.97;21069339;28;20149;-75
2021/12/06 16:07:08;;;;;;;27.25;17.55;;;;;;;16.36;53.42;100555.34;21086955;28;20044;-72
2021/12/06 16:17:10;;;;;;;28.73;17.55;;;;;;;16.09;53.42;100511.09;21086057;28;20142;-72
2021/12/06 16:27:15;;;;;;;31.40;21.08;;;;;;;16.57;53.46;100582.16;21066955;28;20061;-71
2021/12/06 16:37:20;;;;;;;32.33;18.40;;;;;;;16.73;53.56;100604.97;21066249;28;20040;-71
2021/12/06 16:47:33;;;;;;;28.17;17.40;;;;;;;16.65;53.22;100568.88;21083747;28;20056;-71
2021/12/06 16:57:44;;;;;;;26.42;17.75;;;;;;;16.21;53.00;100482.31;21063768;28;20443;-71
2021/12/06 17:07:47;;;;;;;28.63;16.67;;;;;;;16.24;53.01;100457.88;21082509;28;20452;-71
2021/12/06 17:17:52;;;;;;;23.80;16.40;;;;;;;16.58;52.72;100479.03;21081384;28;20044;-71
2021/12/06 17:27:54;;;;;;;22.88;15.48;;;;;;;16.94;52.36;100537.69;21080883;28;20135;-71
2021/12/06 17:37:56;;;;;;;23.20;14.27;;;;;;;16.45;51.93;100432.78;21079567;28;20444;-71
2021/12/06 17:47:58;;;;;;;19.85;13.57;;;;;;;16.95;51.81;100507.97;21060942;28;20401;-71
2021/12/06 17:58:18;;;;;;;22.40;13.55;;;;;;;16.33;51.50;100384.50;21078223;28;20067;-71
2021/12/06 18:08:21;;;;;;;18.85;12.68;;;;;;;16.55;51.06;100419.34;21077298;28;20047;-71
2021/12/06 18:18:23;;;;;;;17.23;12.25;;;;;;;16.98;51.04;100463.00;21076502;28;20043;-71
2021/12/06 18:28:27;;;;;;;14.65;10.77;;;;;;;16.80;50.64;100408.06;21057850;28;20389;-71
2021/12/06 18:38:37;;;;;;;17.58;11.02;;;;;;;16.92;50.36;100403.41;21074865;28;20052;-71
2021/12/06 18:48:41;;;;;;;14.68;10.13;;;;;;;16.20;50.26;100271.13;21056258;28;20050;-71
2021/12/06 18:58:43;;;;;;;14.90;9.88;;;;;;;16.42;50.05;100285.28;21055949;28;20064;-71
2021/12/06 19:08:46;;;;;;;14.27;10.20;;;;;;;16.90;49.98;100353.44;21073235;28;20074;-71
2021/12/06 19:18:48;;;;;;;14.35;9.45;;;;;;;16.99;49.65;100343.69;21054493;28;20072;-71
2021/12/06 19:28:53;;;;;;;11.93;8.82;;;;;;;16.95;49.64;100317.06;21054177;28;20048;-71
2021/12/06 19:38:55;;;;;;;12.27;9.13;;;;;;;16.89;49.48;100292.59;21072380;28;20052;-71
2021/12/06 19:48:57;;;;;;;10.80;8.38;;;;;;;16.92;49.30;100298.53;21053465;28;20074;-71
2021/12/06 19:59:02;;;;;;;11.60;8.98;;;;;;;16.99;49.14;100279.16;21071227;28;20052;-71
2021/12/06 20:09:05;;;;;;;12.98;8.88;;;;;;;16.23;48.80;100133.88;21052830;28;20091;-71
2021/12/06 20:19:07;;;;;;;11.65;8.77;;;;;;;16.96;49.00;100235.41;21052457;28;20051;-72
2021/12/06 20:29:09;;;;;;;11.68;8.15;;;;;;;16.88;49.02;100210.22;21076806;28;20098;-71
2021/12/06 20:39:10;;;;;;;12.35;9.10;;;;;;;16.79;48.83;100196.69;21084519;28;20051;-71
2021/12/06 20:49:12;;;;;;;10.07;8.13;;;;;;;16.75;48.76;100205.16;21067065;28;20048;-71
2021/12/06 20:59:19;;;;;;;12.05;8.80;;;;;;;16.50;48.94;100148.41;21064740;28;20044;-71
2021/12/06 21:09:23;;;;;;;10.98;7.93;;;;;;;16.17;48.75;100099.56;21064834;28;20074;-71
2021/12/06 21:19:27;;;;;;;10.95;8.73;;;;;;;16.22;48.55;100110.69;21031126;28;20133;-71
2021/12/06 21:29:29;;;;;;;9.38;7.25;;;;;;;16.19;48.75;100127.97;21062325;28;20474;-71
2021/12/06 21:39:31;;;;;;;8.43;6.63;;;;;;;16.04;48.72;100114.13;21078991;28;20109;-71
2021/12/06 21:49:33;;;;;;;9.02;7.15;;;;;;;15.43;48.74;100016.00;21078707;28;20102;-71
2021/12/06 21:59:35;;;;;;;9.90;7.60;;;;;;;15.50;48.44;100044.78;21060156;28;20062;-71
2021/12/06 22:09:37;;;;;;;10.77;7.32;;;;;;;15.19;48.42;100003.84;21077454;28;20052;-71
2021/12/06 22:19:40;;;;;;;8.73;6.75;;;;;;;15.28;48.69;100019.09;21058543;28;20063;-71
2021/12/06 22:29:44;;;;;;;8.38;6.68;;;;;;;14.91;48.72;99975.03;21057830;28;20040;-71
2021/12/06 22:39:50;;;;;;;8.30;6.65;;;;;;;15.32;48.78;100057.19;21075110;28;20059;-71
2021/12/06 22:49:52;;;;;;;7.78;6.40;;;;;;;15.30;48.63;100037.72;21073590;28;20043;-71
2021/12/06 22:59:58;;;;;;;6.57;5.75;;;;;;;14.80;48.93;99988.56;21073743;28;20048;-71
2021/12/06 23:10:00;;;;;;;8.05;6.43;;;;;;;14.52;49.35;99955.34;21073260;28;20047;-71
2021/12/06 23:20:03;;;;;;;7.63;5.93;;;;;;;14.34;49.26;99940.78;21072574;28;20048;-71
2021/12/06 23:30:09;;;;;;;6.80;5.55;;;;;;;14.86;49.54;100046.97;21072366;28;20048;-71
2021/12/06 23:40:37;;;;;;;;;;;;;;;14.87;49.84;100053.19;21072434;28;20485;-71
2021/12/06 23:50:39;;;;;;;5.70;4.80;;;;;;;14.32;49.81;99996.28;21071362;28;19974;-71
